Data for 08/24/2018

Time Sea-Level Adjusted Pressure Absolute Pressure Temperature Relative Humidity Dew Point   
(mb) (inHg) (mb) (inHg) (C) (F) (%) (C) (F)
00:05 1016 30 845 24.95 15.1 59.1 46 3.6 38.4
00:10 1016 30 845 24.95 15.6 60 43 3 37.5
00:15 1016 30 845 24.95 15.4 59.8 45 3.7 38.7
00:20 1016 30 845 24.95 14.6 58.3 50 4.4 39.9
00:25 1016 30 845 24.95 14.2 57.6 45 2.5 36.5
00:30 1016 30 845 24.95 14.8 58.6 45 3.2 37.7
00:35 1016 30 845 24.95 14.9 58.8 45 3.2 37.8
00:40 1016 30 845 24.95 14.8 58.7 44 2.9 37.1
00:45 1016 30 845 24.95 14.9 58.8 45 3.2 37.8
00:50 1016 30 845 24.95 14.5 58.1 47 3.3 37.9
00:55 1016 30 845 24.95 14.3 57.8 46 3.1 37.6
01:00 1016 30 845 24.95 14.5 58 46 3 37.4
01:05 1016 30 845 24.95 14.9 58.8 44 3 37.3
01:10 1016 30 845 24.95 14.8 58.6 44 2.9 37.1
01:15 1016 30 845 24.95 14.6 58.3 46 3.1 37.5
01:20 1016 30 845 24.95 14.4 57.8 46 2.8 37.1
01:25 1016 30 845 24.95 14.4 57.9 45 2.7 36.8
01:30 1016 30 845 24.95 14.5 58.1 45 2.8 37
01:35 1016 30 845 24.95 14.6 58.3 45 2.8 37
01:40 1016 30 845 24.95 14.6 58.3 44 2.7 36.8
01:45 1016 30 845 24.95 14.6 58.3 44 2.6 36.7
01:50 1016 30 845 24.95 14.7 58.5 44 2.6 36.7
01:55 1016 30 845 24.95 14.7 58.5 44 2.8 37
02:00 1016 30 845 24.95 14.5 58.1 46 3 37.4
02:05 1016 30 845 24.95 14.2 57.5 47 3 37.4
02:10 1016 30 845 24.95 14.2 57.5 45 2.6 36.7
02:15 1016 30 845 24.95 14.4 57.9 45 2.7 36.9
02:20 1016 30 845 24.95 14.4 57.9 45 2.7 36.9
02:25 1016 30 845 24.95 14.4 57.9 45 2.5 36.6
02:30 1016 30 845 24.95 14.7 58.4 43 2.4 36.3
02:35 1016 30 845 24.95 14.9 58.7 42 2.3 36.1
02:40 1016 30 845 24.95 15 58.9 44 2.8 37
02:45 1016 30 845 24.95 14.8 58.6 45 3 37.4
02:50 1016 30 845 24.95 14.6 58.3 45 2.8 37.1
02:55 1016 30 845 24.95 14.1 57.3 49 3.5 38.4
03:00 1016 30 845 24.95 13.4 56.1 51 3.4 38.2
03:05 1016 30 845 24.95 13 55.3 51 3.2 37.7
03:10 1016 30 845 24.95 12.8 55 53 3.5 38.3
03:15 1016 30 845 24.95 12.5 54.4 53 3.2 37.8
03:20 1016 30 845 24.95 12.4 54.3 52 2.9 37.2
03:25 1016 30 845 24.95 12.5 54.4 51 2.8 37
03:30 1016 30 845 24.95 12.6 54.7 51 2.8 37.1
03:35 1016 30 845 24.95 12.6 54.7 51 2.9 37.2
03:40 1016 30 845 24.95 12.3 54.1 55 3.4 38.1
03:45 1016 30 845 24.95 11.7 53.1 56 3.3 37.9
03:50 1016 30 845 24.95 11.6 52.8 56 3.2 37.8
03:55 1016 30 845 24.95 11.6 52.9 54 2.6 36.8
04:00 1016 30 845 24.95 12.2 53.9 52 2.6 36.7
04:05 1016 30 845 24.95 12.6 54.7 50 2.5 36.5
04:10 1016 30 845 24.95 12.7 54.8 50 2.6 36.8
04:15 1016 30 845 24.95 12.6 54.6 50 2.6 36.7
04:20 1016 30 845 24.95 12.5 54.5 51 2.7 36.9
04:25 1016 30 845 24.95 12.5 54.5 49 2.2 35.9
04:30 1016 30 845 24.95 13.1 55.5 48 2.3 36.1
04:35 1016 30 845 24.95 13.1 55.6 47 2.2 35.9
04:40 1016 30 845 24.95 13.1 55.6 48 2.4 36.4
04:45 1016 30 845 24.95 13.2 55.7 47 2.1 35.9
04:50 1016 30 845 24.95 13.2 55.7 47 2.1 35.8
04:55 1016 30 845 24.95 13 55.5 49 2.5 36.6
05:00 1016 30 845 24.95 12.7 54.9 50 2.5 36.5
05:05 1016 30 845 24.95 12.7 54.8 50 2.6 36.6
05:10 1016 30 845 24.95 12.6 54.6 51 2.7 36.8
05:15 1016 30 845 24.95 12.4 54.3 52 2.8 37.1
05:20 1016 30 845 24.95 12.1 53.8 53 2.8 37.1
05:25 1016 30 845 24.95 12 53.7 53 2.7 36.9
05:30 1016 30 845 24.95 11.9 53.5 53 2.8 37.1
05:35 1016 30 845 24.95 11.7 53 53 2.5 36.5
05:40 1016 30 845 24.95 12.3 54.1 50 2.2 36
05:45 1016 30 845 24.95 12.2 54 53 3 37.4
05:50 1016 30 845 24.95 11.5 52.7 55 2.9 37.2
05:55 1016 30 845 24.95 11 51.8 58 3.2 37.7
06:00 1016 30 845 24.95 10.7 51.2 58 2.8 37.1
06:05 1016 30 845 24.95 11.1 52 55 2.3 36.2
06:10 1016 30 845 24.95 11.3 52.4 55 2.7 36.8
06:15 1016 30 845 24.95 11.6 52.8 53 2.4 36.3
06:20 1016 30 845 24.95 11.8 53.2 53 2.7 36.8
06:25 1016 30 845 24.95 11.5 52.7 55 2.8 37.1
06:30 1016 30 845 24.95 11.3 52.4 54 2.5 36.4
06:35 1016 30 845 24.95 11.7 53 53 2.4 36.3
06:40 1016 30 845 24.95 12 53.6 52 2.4 36.3
06:45 1016 30 845 24.95 11.9 53.4 55 3.1 37.6
06:50 1016 30 845 24.95 11.4 52.5 54 2.5 36.6
06:55 1016 30 845 24.95 11.7 53 54 2.6 36.7
07:00 1016 30 845 24.95 11.7 53 54 2.6 36.7
07:05 1016 30 845 24.95 11.7 53.1 54 2.8 37
07:10 1016 30 845 24.95 11.6 52.9 53 2.5 36.5
07:15 1016 30 846 24.98 12 53.6 52 2.5 36.5
07:20 1016 30 846 24.98 12.2 53.9 52 2.7 36.8
07:25 1016 30 846 24.98 12.3 54.1 52 2.8 37
07:30 1016 30 846 24.98 12.1 53.8 54 3.2 37.8
07:35 1016 30 846 24.98 11.6 52.9 56 3.2 37.8
07:40 1016 30 846 24.98 11.5 52.7 56 3 37.4
07:45 1017 30.03 846 24.98 11.8 53.3 54 2.9 37.3
07:50 1017 30.03 846 24.98 12.2 53.9 53 3 37.4
07:55 1017 30.03 846 24.98 12.3 54.2 53 3 37.4
08:00 1017 30.03 846 24.98 12.6 54.7 52 3 37.3
08:05 1017 30.03 846 24.98 12.9 55.2 52 3.2 37.8
08:10 1016 30 846 24.98 13.1 55.5 52 3.4 38.2
08:15 1017 30.03 846 24.98 13.1 55.6 51 3.3 37.9
08:20 1017 30.03 846 24.98 13.3 55.9 52 3.8 38.9
08:25 1017 30.03 846 24.98 13.4 56.1 53 4.2 39.5
08:30 1017 30.03 846 24.98 13.5 56.3 53 4.2 39.5
08:35 1017 30.03 846 24.98 13.5 56.3 53 4.3 39.7
08:40 1017 30.03 846 24.98 13.6 56.5 53 4.2 39.6
08:45 1017 30.03 846 24.98 13.8 56.8 52 4.1 39.4
08:50 1017 30.03 846 24.98 13.8 56.9 52 4.3 39.7
08:55 1017 30.03 846 24.98 14 57.2 53 4.6 40.3
09:00 1017 30.03 846 24.98 14.2 57.5 51 4.2 39.5
09:05 1017 30.03 846 24.98 14.6 58.2 51 4.6 40.4
09:10 1017 30.03 846 24.98 14.9 58.7 49 4.4 40
09:15 1016 30 846 24.98 15.5 59.8 49 4.9 40.8
09:20 1016 30 846 24.98 15.7 60.3 48 4.9 40.9
09:25 1016 30 846 24.98 16.1 60.9 47 4.9 40.9
09:30 1016 30 846 24.98 16.2 61.2 45 4.5 40
09:35 1016 30 846 24.98 16.2 61.1 46 4.7 40.4
09:40 1016 30 846 24.98 16.6 61.8 46 4.9 40.7
09:45 1016 30 846 24.98 17.2 62.9 43 4.6 40.2
09:50 1016 30 846 24.98 17.6 63.6 42 4.6 40.2
09:55 1016 30 845 24.95 18 64.4 42 4.9 40.9
10:00 1016 30 845 24.95 18.1 64.7 40 4.6 40.2
10:05 1016 30 845 24.95 18.4 65 40 4.8 40.6
10:10 1016 30 845 24.95 19 66.1 38 4.4 40
10:15 1016 30 845 24.95 19.2 66.5 36 3.8 38.9
10:20 1016 30 845 24.95 19.6 67.2 36 4.3 39.8
10:25 1016 30 845 24.95 20.1 68.2 36 4.5 40.2
10:30 1016 30 845 24.95 20.5 68.8 34 4.2 39.6
10:35 1016 30 845 24.95 20.9 69.5 32 3.7 38.7
10:40 1016 30 845 24.95 21.3 70.3 32 3.9 39.1
10:45 1016 30 845 24.95 21.7 71.1 32 4.3 39.7
10:50 1016 30 845 24.95 21.9 71.5 31 4.3 39.7
10:55 1016 30 845 24.95 21.9 71.4 31 4.1 39.4
11:00 1016 30 845 24.95 21.7 71.1 30 3.8 38.9
11:05 1016 30 845 24.95 22.2 72 31 4.3 39.7
11:10 1016 30 845 24.95 21.8 71.3 32 4.7 40.4
11:15 1016 30 845 24.95 21.9 71.4 32 4.8 40.6
11:20 1016 30 845 24.95 22.3 72.1 31 4.7 40.5
11:25 1016 30 845 24.95 22.5 72.5 30 4.4 40
11:30 1016 30 845 24.95 21.7 71.1 31 4.3 39.7
11:35 1016 30 845 24.95 21.6 70.8 31 4 39.2
11:40 1016 30 845 24.95 22.3 72.1 31 4.5 40.2
11:45 1015 29.97 845 24.95 23.1 73.5 32 5.5 41.9
11:50 1015 29.97 845 24.95 23.2 73.8 28 3.8 38.9
11:55 1015 29.97 845 24.95 22.9 73.2 30 4.8 40.6
12:00 1015 29.97 845 24.95 22.9 73.3 32 5.6 42
12:05 1015 29.97 845 24.95 22.9 73.3 32 5.5 41.9
12:10 1015 29.97 844 24.92 23.2 73.8 31 5.3 41.5
12:15 1015 29.97 844 24.92 23.3 74 31 5.5 41.9
12:20 1015 29.97 844 24.92 23.3 73.9 30 5 40.9
12:25 1015 29.97 844 24.92 23.2 73.8 31 5.2 41.3
12:30 1015 29.97 844 24.92 23 73.3 31 5 41
12:35 1015 29.97 844 24.92 22.8 73 30 4.4 40
12:40 1015 29.97 844 24.92 22.8 73 30 4.6 40.3
12:45 1015 29.97 844 24.92 22.7 72.9 30 4.5 40.1
12:50 1015 29.97 844 24.92 23.1 73.5 29 4.1 39.5
12:55 1015 29.97 844 24.92 23.6 74.4 27 3.7 38.6
13:00 1015 29.97 844 24.92 23.9 75 27 4 39.2
13:05 1015 29.97 844 24.92 24.1 75.3 27 4 39.2
13:10 1015 29.97 844 24.92 24.2 75.6 27 4.2 39.5
13:15 1015 29.97 844 24.92 24.4 76 26 3.9 38.9
13:20 1015 29.97 844 24.92 24.2 75.5 26 3.9 39
13:25 1015 29.97 844 24.92 23.7 74.6 25 2.9 37.2
13:30 1015 29.97 844 24.92 23.6 74.4 25 2.9 37.2
13:35 1015 29.97 844 24.92 23.8 74.8 25 2.8 37.1
13:40 1015 29.97 844 24.92 23.7 74.7 26 3.3 37.9
13:45 1015 29.97 844 24.92 23.6 74.4 26 3.2 37.7
13:50 1015 29.97 844 24.92 23 73.5 25 2 35.6
13:55 1015 29.97 844 24.92 22.8 73.1 26 2.8 37
14:00 1015 29.97 844 24.92 23.2 73.7 26 2.7 36.9
14:05 1015 29.97 844 24.92 23.2 73.7 26 2.6 36.7
14:10 1015 29.97 844 24.92 23 73.5 24 1.3 34.4
14:15 1015 29.97 844 24.92 22.8 73.1 26 2.4 36.3
14:20 1015 29.97 845 24.95 22.1 71.8 28 3.1 37.5
14:25 1015 29.97 844 24.92 21.1 70 30 3.2 37.8
14:30 1015 29.97 844 24.92 20.7 69.2 37 5.7 42.2
14:35 1015 29.97 844 24.92 20.4 68.7 40 6.4 43.6
14:40 1015 29.97 844 24.92 20.2 68.4 39 6 42.8
14:45 1015 29.97 844 24.92 19.9 67.7 40 5.9 42.7
14:50 1015 29.97 844 24.92 19.6 67.3 37 4.7 40.5
14:55 1015 29.97 844 24.92 19.7 67.4 37 4.9 40.7
15:00 1015 29.97 844 24.92 19.8 67.6 33 3.1 37.6
15:05 1015 29.97 844 24.92 20.1 68.1 36 4.7 40.5
15:10 1015 29.97 844 24.92 19.7 67.4 39 5.3 41.5
15:15 1015 29.97 844 24.92 19.5 67.2 39 5.2 41.3
15:20 1015 29.97 844 24.92 19.6 67.3 33 3.1 37.7
15:25 1015 29.97 844 24.92 20.1 68.1 29 1.8 35.3
15:30 1015 29.97 844 24.92 20.8 69.5 23 -0.8 30.6
15:35 1014 29.94 844 24.92 21.8 71.3 22 -0.4 31.2
15:40 1014 29.94 844 24.92 22.1 71.8 21 -0.8 30.5
15:45 1014 29.94 844 24.92 22.2 72 24 0.9 33.5
15:50 1014 29.94 844 24.92 22.2 71.9 23 0.5 32.9
15:55 1014 29.94 843 24.89 22.2 71.9 24 0.9 33.6
16:00 1014 29.94 843 24.89 22.2 72 24 0.9 33.7
16:05 1014 29.94 843 24.89 22 71.6 25 1.3 34.3
16:10 1014 29.94 843 24.89 21.8 71.2 25 1.3 34.4
16:15 1014 29.94 843 24.89 21.8 71.2 25 1.1 33.9
16:20 1014 29.94 843 24.89 22 71.5 25 1.3 34.4
16:25 1014 29.94 843 24.89 22.3 72.1 23 0.2 32.3
16:30 1014 29.94 843 24.89 22.6 72.7 22 -0 32
16:35 1014 29.94 843 24.89 22.5 72.6 23 0.4 32.6
16:40 1014 29.94 844 24.92 22.8 73 19 -1.7 28.9
16:45 1014 29.94 843 24.89 23 73.4 17 -3.2 26.2
16:50 1014 29.94 843 24.89 23.5 74.4 19 -1.5 29.2
16:55 1014 29.94 843 24.89 23.3 74 20 -0.3 31.4
17:00 1014 29.94 843 24.89 23 73.3 21 -0 31.9
17:05 1014 29.94 843 24.89 22.8 73 21 -0.6 30.9
17:10 1014 29.94 843 24.89 22.9 73.1 20 -0.9 30.5
17:15 1014 29.94 843 24.89 23 73.4 20 -1.2 29.9
17:20 1014 29.94 843 24.89 23 73.4 21 -0.5 31.1
17:25 1014 29.94 843 24.89 23.2 73.8 21 0.2 32.4
17:30 1014 29.94 843 24.89 23.2 73.7 20 -0.6 30.9
17:35 1014 29.94 843 24.89 23.2 73.7 21 0.1 32.2
17:40 1014 29.94 843 24.89 23.1 73.6 22 0.5 33
17:45 1014 29.94 844 24.92 23 73.4 22 0.3 32.5
17:50 1014 29.94 844 24.92 22.8 73.1 21 -0.5 31.2
17:55 1014 29.94 844 24.92 22.8 73 22 0.2 32.3
18:00 1015 29.97 844 24.92 22.7 72.8 22 -0.1 31.8
18:05 1015 29.97 844 24.92 22.3 72.1 23 0.4 32.7
18:10 1015 29.97 844 24.92 21.7 71.1 25 0.8 33.4
18:15 1015 29.97 844 24.92 21.4 70.6 26 1.2 34.1
18:20 1015 29.97 844 24.92 21.1 70.1 26 1.2 34.2
18:25 1015 29.97 844 24.92 21 69.8 27 1.3 34.3
18:30 1015 29.97 844 24.92 20.9 69.7 27 1.7 35
18:35 1015 29.97 844 24.92 20.8 69.4 28 1.6 34.8
18:40 1015 29.97 844 24.92 20.7 69.3 28 1.8 35.3
18:45 1014 29.94 844 24.92 20.6 69.1 29 2.1 35.8
18:50 1014 29.94 843 24.89 20.4 68.7 29 2.1 35.9
18:55 1014 29.94 843 24.89 20.3 68.6 28 1.6 34.8
19:00 1014 29.94 843 24.89 20.4 68.7 27 1.1 34
19:05 1014 29.94 843 24.89 20.5 68.9 27 1.2 34.1
19:10 1014 29.94 843 24.89 20.6 69 27 1 33.8
19:15 1014 29.94 843 24.89 20.5 68.9 27 1.3 34.3
19:20 1014 29.94 843 24.89 20.4 68.7 28 1.6 34.8
19:25 1014 29.94 843 24.89 20.3 68.6 29 1.6 35
19:30 1014 29.94 843 24.89 20.2 68.4 29 1.6 34.8
19:35 1014 29.94 843 24.89 20 68.1 29 1.5 34.7
19:40 1014 29.94 843 24.89 19.9 67.8 28 1.2 34.1
19:45 1014 29.94 843 24.89 19.9 67.7 28 1.2 34.1
19:50 1014 29.94 843 24.89 19.9 67.8 28 1.2 34.2
19:55 1014 29.94 843 24.89 19.8 67.6 29 1.6 34.9
20:00 1014 29.94 843 24.89 19.5 67.2 30 1.5 34.8
20:05 1014 29.94 844 24.92 19.3 66.7 30 1.6 34.9
20:10 1014 29.94 844 24.92 19.1 66.4 31 1.6 34.9
20:15 1015 29.97 844 24.92 19.1 66.4 32 2.1 35.8
20:20 1015 29.97 844 24.92 18.6 65.5 33 2.4 36.3
20:25 1015 29.97 844 24.92 18.4 65.1 31 1.1 34.1
20:30 1015 29.97 844 24.92 18.7 65.7 33 2.3 36.1
20:35 1015 29.97 844 24.92 18.5 65.3 32 1.8 35.2
20:40 1015 29.97 844 24.92 18.6 65.4 32 1.9 35.3
20:45 1015 29.97 844 24.92 18.5 65.3 33 2 35.6
20:50 1015 29.97 844 24.92 18.6 65.4 32 1.7 35.1
20:55 1015 29.97 844 24.92 18.6 65.4 34 2.4 36.3
21:00 1015 29.97 844 24.92 18.1 64.6 35 2.7 36.9
21:05 1015 29.97 845 24.95 17.2 63 41 4 39.2
21:10 1015 29.97 845 24.95 16.1 60.9 41 2.9 37.1
21:15 1015 29.97 845 24.95 16.1 61 40 2.7 36.8
21:20 1016 30 845 24.95 16.2 61.2 40 2.7 36.9
21:25 1016 30 845 24.95 16.2 61.2 41 2.9 37.3
21:30 1016 30 845 24.95 16 60.9 43 3.4 38.1
21:35 1016 30 845 24.95 15.6 60 44 3.6 38.5
21:40 1016 30 845 24.95 15.4 59.7 43 2.8 37.1
21:45 1016 30 846 24.98 15.4 59.8 41 2.5 36.4
21:50 1016 30 846 24.98 15.7 60.3 41 2.5 36.5
21:55 1016 30 846 24.98 15.7 60.3 42 2.9 37.2
22:00 1017 30.03 846 24.98 15.5 59.9 43 3.1 37.5
22:05 1017 30.03 846 24.98 15.3 59.5 44 3.3 37.9
22:10 1017 30.03 846 24.98 15 59 46 3.5 38.3
22:15 1017 30.03 846 24.98 14.9 58.8 46 3.5 38.3
22:20 1017 30.03 846 24.98 14.8 58.7 47 3.8 38.8
22:25 1017 30.03 846 24.98 14.4 57.9 49 3.9 39
22:30 1017 30.03 846 24.98 14.1 57.3 49 3.7 38.6
22:35 1017 30.03 846 24.98 14.1 57.4 49 3.5 38.4
22:40 1017 30.03 846 24.98 14.1 57.4 47 3.2 37.8
22:45 1017 30.03 846 24.98 14.3 57.8 47 3.2 37.7
22:50 1017 30.03 846 24.98 14.5 58.1 46 3.2 37.8
22:55 1017 30.03 846 24.98 14.5 58.1 46 3.2 37.8
23:00 1017 30.03 846 24.98 14.1 57.5 51 4.3 39.8
23:05 1017 30.03 846 24.98 13 55.5 56 4.4 40
23:10 1017 30.03 846 24.98 12.3 54.1 56 3.8 38.8
23:15 1017 30.03 846 24.98 12.3 54.1 55 3.5 38.3
23:20 1017 30.03 847 25.01 12.6 54.7 50 2.7 36.8
23:25 1017 30.03 847 25.01 13.4 56.1 48 2.6 36.7
23:30 1017 30.03 847 25.01 13.9 57.1 44 1.9 35.4
23:35 1017 30.03 847 25.01 14.6 58.2 42 1.9 35.4
23:40 1017 30.03 847 25.01 14.7 58.5 41 1.7 35.1
23:45 1017 30.03 847 25.01 14.9 58.8 40 1.4 34.5
23:50 1017 30.03 847 25.01 15.1 59.1 39 1.3 34.3
23:55 1017 30.03 847 25.01 15 59 39 1.3 34.4
24:00 1018 30.06 847 25.01 14.9 58.8 38 1 33.7